Val Verda, Utah
Current Conditions -  °F | °C
As of 9:53 PM on Monday 20 Oct 2014 (Local Time) from KSLC Reporting Station
Few Clouds Few Clouds  
Wind Chill: 61°   Ceiling: Unl
Heat Index: 61°   Visibility: 10mi
Dew Point: 38°   Wind: 7mph
Humidity: 42%   Direction: 130°SE
Pressure: 29.91"   Gusts: NA
Location:  40.8715°N, 111.831°W
Report Text: KSLC 210353Z 13006KT 10SM FEW090 16/03 A2991 RMK AO2 SLP091 T01610033
Loading
Personal Weather Stations






























Interactive Weather Map
Tropical Storm Tracking
New forecast layout! Learn more

10-Day Weather Forecast

Advertisements
Track Severe Weather on mobile